createdAt,value
2017-10-23T00:00:19.038Z,0
2017-10-23T00:00:59.556Z,0
2017-10-23T00:01:40.001Z,0
2017-10-23T00:02:20.484Z,0
2017-10-23T00:03:00.961Z,0
2017-10-23T00:03:41.450Z,0
2017-10-23T00:04:21.939Z,0
2017-10-23T00:05:02.415Z,0
2017-10-23T00:05:42.923Z,0
2017-10-23T00:06:23.389Z,0
2017-10-23T00:07:03.886Z,0
2017-10-23T00:07:44.352Z,0
2017-10-23T00:08:24.798Z,0
2017-10-23T00:09:05.292Z,0
2017-10-23T00:09:45.789Z,0
2017-10-23T00:10:26.276Z,0
2017-10-23T00:11:06.777Z,0
2017-10-23T00:11:47.259Z,0
2017-10-23T00:12:27.739Z,0
2017-10-23T00:13:08.240Z,0
2017-10-23T00:13:48.732Z,0
2017-10-23T00:14:29.226Z,0
2017-10-23T00:15:09.703Z,0
2017-10-23T00:15:50.201Z,0
2017-10-23T00:16:30.687Z,0
2017-10-23T00:17:11.174Z,0
2017-10-23T00:17:51.668Z,0
2017-10-23T00:18:32.175Z,0
2017-10-23T00:19:12.663Z,0
2017-10-23T00:19:53.119Z,0
2017-10-23T00:20:33.569Z,0
2017-10-23T00:21:14.050Z,0
2017-10-23T00:21:54.563Z,0
2017-10-23T00:22:35.036Z,0
2017-10-23T00:23:15.545Z,0
2017-10-23T00:23:56.034Z,0
2017-10-23T00:24:36.525Z,0
2017-10-23T00:25:16.988Z,0
2017-10-23T00:25:57.475Z,0
2017-10-23T00:26:37.978Z,0
2017-10-23T00:27:18.452Z,0
2017-10-23T00:27:58.905Z,0
2017-10-23T00:28:39.358Z,0
2017-10-23T00:29:19.854Z,0
2017-10-23T00:30:00.349Z,0
2017-10-23T00:30:40.838Z,0
2017-10-23T00:31:21.313Z,0
2017-10-23T00:32:01.791Z,0
2017-10-23T00:32:42.282Z,0
2017-10-23T00:33:22.757Z,0
2017-10-23T00:34:03.239Z,0
2017-10-23T00:34:43.707Z,0
2017-10-23T00:35:24.200Z,0
2017-10-23T00:36:04.696Z,0
2017-10-23T00:36:45.181Z,0
2017-10-23T00:37:25.657Z,0
2017-10-23T00:38:06.119Z,0
2017-10-23T00:38:46.626Z,0
2017-10-23T00:39:27.116Z,0
2017-10-23T00:40:07.615Z,0
2017-10-23T00:40:48.101Z,0
2017-10-23T00:41:28.579Z,0
2017-10-23T00:42:09.077Z,0
2017-10-23T00:42:49.567Z,0
2017-10-23T00:43:30.054Z,0
2017-10-23T00:44:10.533Z,0
2017-10-23T00:44:50.994Z,0
2017-10-23T00:47:03.720Z,0
2017-10-23T00:47:44.186Z,0
2017-10-23T00:48:24.671Z,0
2017-10-23T00:49:05.160Z,0
2017-10-23T00:49:45.644Z,0
2017-10-23T00:50:26.127Z,0
2017-10-23T00:51:06.604Z,0
2017-10-23T00:51:47.093Z,0
2017-10-23T00:52:27.570Z,0
2017-10-23T00:53:08.057Z,0
2017-10-23T00:53:48.555Z,0
2017-10-23T00:54:29.063Z,0
2017-10-23T00:55:09.554Z,0
2017-10-23T00:55:50.041Z,0
2017-10-23T00:56:30.524Z,0
2017-10-23T00:57:11.015Z,0
2017-10-23T00:57:51.495Z,0
2017-10-23T00:58:31.965Z,0
2017-10-23T00:59:12.457Z,0
2017-10-23T00:59:52.947Z,0
2017-10-23T01:00:33.435Z,0
2017-10-23T01:01:13.968Z,0
2017-10-23T01:01:54.392Z,0
2017-10-23T01:02:34.887Z,0
2017-10-23T01:03:15.354Z,0
2017-10-23T01:03:55.877Z,0
2017-10-23T01:04:36.368Z,0
2017-10-23T01:05:16.867Z,0
2017-10-23T01:05:57.358Z,0
2017-10-23T01:06:37.827Z,0
2017-10-23T01:07:18.317Z,0
2017-10-23T01:07:58.822Z,0
2017-10-23T01:08:39.317Z,0
2017-10-23T01:09:19.793Z,0
2017-10-23T01:10:00.282Z,0
2017-10-23T01:10:40.780Z,0
2017-10-23T01:11:21.252Z,0
2017-10-23T01:12:01.729Z,0
2017-10-23T01:12:42.223Z,0
2017-10-23T01:13:22.700Z,0
2017-10-23T01:14:03.177Z,0
2017-10-23T01:14:43.669Z,0
2017-10-23T01:15:24.153Z,0
2017-10-23T01:16:04.659Z,0
2017-10-23T01:16:45.117Z,0
2017-10-23T01:19:02.901Z,0
2017-10-23T01:19:43.385Z,0
2017-10-23T01:20:23.887Z,0
2017-10-23T01:21:04.401Z,0
2017-10-23T01:21:44.823Z,0
2017-10-23T01:22:25.285Z,0
2017-10-23T01:23:05.762Z,0
2017-10-23T01:25:18.469Z,0
2017-10-23T01:25:58.946Z,0
2017-10-23T01:26:39.438Z,0
2017-10-23T01:27:19.928Z,0
2017-10-23T01:28:00.407Z,0
2017-10-23T01:28:40.910Z,0
2017-10-23T01:29:21.402Z,0
2017-10-23T01:30:01.893Z,0
2017-10-23T01:30:42.410Z,0
2017-10-23T01:31:22.874Z,0
2017-10-23T01:32:03.364Z,0
2017-10-23T01:32:43.843Z,0
2017-10-23T01:33:24.329Z,0
2017-10-23T01:34:04.826Z,0
2017-10-23T01:34:45.285Z,0
2017-10-23T01:35:25.769Z,0
2017-10-23T01:36:06.267Z,0
2017-10-23T01:36:46.762Z,0
2017-10-23T01:37:27.242Z,0
2017-10-23T01:38:07.725Z,0
2017-10-23T01:38:48.228Z,0
2017-10-23T01:39:28.724Z,0
2017-10-23T01:40:09.216Z,0
2017-10-23T01:40:49.707Z,0
2017-10-23T01:41:30.197Z,0
2017-10-23T01:42:10.693Z,0
2017-10-23T01:42:51.165Z,0
2017-10-23T01:43:31.653Z,0
2017-10-23T01:44:12.148Z,0
2017-10-23T01:44:52.656Z,0
2017-10-23T01:45:33.150Z,0
2017-10-23T01:46:13.659Z,0
2017-10-23T01:46:54.158Z,0
2017-10-23T01:47:34.633Z,0
2017-10-23T01:48:15.124Z,0
2017-10-23T01:48:55.607Z,0
2017-10-23T01:49:36.092Z,0
2017-10-23T01:50:16.576Z,0
2017-10-23T01:50:57.060Z,0
2017-10-23T01:51:37.550Z,0
2017-10-23T01:52:18.020Z,0
2017-10-23T01:52:58.531Z,0
2017-10-23T01:53:39.002Z,0
2017-10-23T01:54:19.487Z,0
2017-10-23T01:54:59.965Z,0
2017-10-23T01:55:40.448Z,0
2017-10-23T01:56:20.941Z,0
2017-10-23T01:57:01.438Z,0
2017-10-23T01:57:41.918Z,0
2017-10-23T01:58:22.408Z,0
2017-10-23T01:59:02.893Z,0
2017-10-23T01:59:43.380Z,0
2017-10-23T02:00:23.869Z,0
2017-10-23T02:01:04.371Z,0
2017-10-23T02:01:44.852Z,0
2017-10-23T02:02:25.326Z,0
2017-10-23T02:03:05.799Z,0
2017-10-23T02:03:46.288Z,0
2017-10-23T02:04:26.765Z,0
2017-10-23T02:05:07.245Z,0
2017-10-23T02:05:47.719Z,0
2017-10-23T02:06:28.192Z,0
2017-10-23T02:07:08.681Z,0
2017-10-23T02:07:49.167Z,0
2017-10-23T02:08:29.654Z,0
2017-10-23T02:09:10.138Z,0
2017-10-23T02:09:50.634Z,0
2017-10-23T02:10:31.118Z,0
2017-10-23T02:11:11.600Z,0
2017-10-23T02:11:52.100Z,0
2017-10-23T02:12:32.587Z,0
2017-10-23T02:13:13.074Z,0
2017-10-23T02:13:53.551Z,0
2017-10-23T02:14:34.045Z,0
2017-10-23T02:15:14.528Z,0
2017-10-23T02:15:54.996Z,0
2017-10-23T02:16:35.476Z,0
2017-10-23T02:17:15.978Z,0
2017-10-23T02:17:56.473Z,0
2017-10-23T02:18:36.929Z,0
2017-10-23T02:19:17.432Z,0
2017-10-23T02:19:57.916Z,0
2017-10-23T02:20:38.399Z,0
2017-10-23T02:22:56.204Z,0
2017-10-23T02:23:36.702Z,0
2017-10-23T02:24:17.199Z,0
2017-10-23T02:24:57.693Z,0
2017-10-23T02:25:38.171Z,0
2017-10-23T02:26:18.664Z,0
2017-10-23T02:26:59.124Z,0
2017-10-23T02:27:39.605Z,0
2017-10-23T02:28:20.095Z,0
2017-10-23T02:29:00.608Z,0
2017-10-23T02:29:41.060Z,0
2017-10-23T02:30:21.578Z,0
2017-10-23T02:31:02.078Z,0
2017-10-23T02:31:42.542Z,0
2017-10-23T02:32:23.004Z,0
2017-10-23T02:33:03.454Z,0
2017-10-23T02:33:43.914Z,0
2017-10-23T02:34:24.337Z,0
2017-10-23T02:35:04.800Z,0
2017-10-23T02:35:45.264Z,0
2017-10-23T02:36:25.736Z,0
2017-10-23T02:37:06.229Z,0
2017-10-23T02:37:46.683Z,0
2017-10-23T02:38:27.191Z,0
2017-10-23T02:39:07.639Z,0
2017-10-23T02:41:20.338Z,0
2017-10-23T02:42:00.832Z,0
2017-10-23T02:42:41.345Z,0
2017-10-23T02:43:21.820Z,0
2017-10-23T02:44:02.309Z,0
2017-10-23T02:44:42.793Z,0
2017-10-23T02:45:23.281Z,0
2017-10-23T02:46:03.748Z,0
2017-10-23T02:46:44.245Z,0
2017-10-23T02:47:24.727Z,0
2017-10-23T02:48:05.204Z,0
2017-10-23T02:48:45.686Z,0
2017-10-23T02:49:26.173Z,0
2017-10-23T02:50:06.674Z,0
2017-10-23T02:50:47.151Z,0
2017-10-23T02:51:27.655Z,0
2017-10-23T02:52:08.136Z,0
2017-10-23T02:52:48.624Z,0
2017-10-23T02:53:29.104Z,0
2017-10-23T02:54:09.592Z,0
2017-10-23T02:54:50.070Z,0
2017-10-23T02:55:30.552Z,0
2017-10-23T02:56:11.036Z,0
2017-10-23T02:56:51.515Z,0
2017-10-23T02:57:31.953Z,0
2017-10-23T02:58:12.445Z,0
2017-10-23T03:00:50.579Z,0
2017-10-23T03:01:31.048Z,0
2017-10-23T03:02:11.556Z,0
2017-10-23T03:02:52.028Z,0
2017-10-23T03:03:32.518Z,0
2017-10-23T03:04:13.013Z,0
2017-10-23T03:04:53.495Z,0
2017-10-23T03:05:33.987Z,0
2017-10-23T03:06:14.491Z,0
2017-10-23T03:06:54.979Z,0
2017-10-23T03:07:35.517Z,0
2017-10-23T03:08:16.011Z,0
2017-10-23T03:08:56.500Z,0
2017-10-23T03:09:36.975Z,0
2017-10-23T03:10:17.467Z,0
2017-10-23T03:10:57.942Z,0
2017-10-23T03:11:38.431Z,0
2017-10-23T03:12:18.930Z,0
2017-10-23T03:12:59.408Z,0
2017-10-23T03:13:39.885Z,0
2017-10-23T03:14:20.384Z,0
2017-10-23T03:15:00.873Z,0
2017-10-23T03:15:41.337Z,0
2017-10-23T03:16:21.825Z,0
2017-10-23T03:17:02.315Z,0
2017-10-23T03:17:42.805Z,0
2017-10-23T03:18:23.277Z,0
2017-10-23T03:19:03.756Z,0
2017-10-23T03:19:44.251Z,0
2017-10-23T03:20:24.726Z,0
2017-10-23T03:22:42.545Z,0
2017-10-23T03:23:23.062Z,0
2017-10-23T03:24:03.537Z,0
2017-10-23T03:24:44.040Z,0
2017-10-23T03:25:24.540Z,0
2017-10-23T03:26:05.019Z,0
2017-10-23T03:26:45.522Z,0
2017-10-23T03:27:26.003Z,0
2017-10-23T03:28:06.477Z,0
2017-10-23T03:28:46.961Z,0
2017-10-23T03:29:27.453Z,0
2017-10-23T03:30:07.927Z,0
2017-10-23T03:30:48.423Z,0
2017-10-23T03:31:28.876Z,0
2017-10-23T03:32:09.361Z,0
2017-10-23T03:32:49.842Z,0
2017-10-23T03:33:30.331Z,0
2017-10-23T03:34:10.814Z,0
2017-10-23T03:34:51.302Z,0
2017-10-23T03:35:31.812Z,0
2017-10-23T03:36:12.298Z,0
2017-10-23T03:36:52.778Z,0
2017-10-23T03:37:33.227Z,0
2017-10-23T03:39:45.950Z,0
2017-10-23T03:40:26.426Z,0
2017-10-23T03:41:06.917Z,0
2017-10-23T03:41:47.410Z,0
2017-10-23T03:42:27.881Z,0
2017-10-23T03:43:08.366Z,0
2017-10-23T03:43:48.822Z,0
2017-10-23T03:44:29.297Z,0
2017-10-23T03:45:09.807Z,0
2017-10-23T03:45:50.294Z,0
2017-10-23T03:46:30.754Z,0
2017-10-23T03:47:11.248Z,0
2017-10-23T03:47:51.739Z,0
2017-10-23T03:48:32.216Z,0
2017-10-23T03:49:12.686Z,0
2017-10-23T03:49:53.180Z,0
2017-10-23T03:50:33.660Z,0
2017-10-23T03:51:14.138Z,0
2017-10-23T03:51:54.631Z,0
2017-10-23T03:52:35.119Z,0
2017-10-23T03:55:13.212Z,0
2017-10-23T03:55:53.689Z,0
2017-10-23T03:56:34.180Z,0
2017-10-23T03:57:14.657Z,0
2017-10-23T03:57:55.144Z,0
2017-10-23T03:58:35.625Z,0
2017-10-23T03:59:16.140Z,0
2017-10-23T03:59:56.595Z,0
2017-10-23T04:00:37.085Z,0
2017-10-23T04:01:17.557Z,0
2017-10-23T04:01:58.051Z,0
2017-10-23T04:02:38.553Z,0
2017-10-23T04:03:19.023Z,0
2017-10-23T04:03:59.497Z,0
2017-10-23T04:04:39.994Z,0
2017-10-23T04:05:20.476Z,0
2017-10-23T04:06:00.957Z,0
2017-10-23T04:06:41.433Z,0
2017-10-23T04:07:21.932Z,0
2017-10-23T04:08:02.418Z,0
2017-10-23T04:08:42.896Z,0
2017-10-23T04:09:23.382Z,0
2017-10-23T04:10:03.883Z,0
2017-10-23T04:10:44.380Z,0
2017-10-23T04:11:24.884Z,0
2017-10-23T04:12:05.356Z,0
2017-10-23T04:12:45.830Z,0
2017-10-23T04:13:26.315Z,0
2017-10-23T04:14:06.825Z,0
2017-10-23T04:14:47.304Z,0
2017-10-23T04:15:27.789Z,0
2017-10-23T04:17:40.514Z,0
2017-10-23T04:18:21.036Z,0
2017-10-23T04:19:01.463Z,0
2017-10-23T04:19:41.954Z,0
2017-10-23T04:20:22.417Z,0
2017-10-23T04:21:02.921Z,0
2017-10-23T04:21:43.432Z,0
2017-10-23T04:22:23.892Z,0
2017-10-23T04:23:04.379Z,0
2017-10-23T04:23:44.876Z,0
2017-10-23T04:24:25.363Z,0
2017-10-23T04:25:05.850Z,0
2017-10-23T04:25:46.322Z,0
2017-10-23T04:26:26.809Z,0
2017-10-23T04:27:07.302Z,0
2017-10-23T04:27:47.784Z,0
2017-10-23T04:28:28.266Z,0
2017-10-23T04:29:08.748Z,0
2017-10-23T04:29:49.242Z,0
2017-10-23T04:30:29.734Z,0
2017-10-23T04:31:10.196Z,0
2017-10-23T04:31:50.667Z,0
2017-10-23T04:32:31.154Z,0
2017-10-23T04:33:11.665Z,0
2017-10-23T04:33:52.172Z,0
2017-10-23T04:34:32.676Z,0
2017-10-23T04:35:13.149Z,0
2017-10-23T04:35:53.620Z,0
2017-10-23T04:36:34.094Z,0
2017-10-23T04:39:02.056Z,0
2017-10-23T04:39:42.533Z,0
2017-10-23T04:40:23.016Z,0
2017-10-23T04:41:03.506Z,0
2017-10-23T04:41:43.991Z,0
2017-10-23T04:42:24.461Z,0
2017-10-23T04:43:04.956Z,0
2017-10-23T04:43:45.450Z,0
2017-10-23T04:44:25.936Z,0
2017-10-23T04:45:06.431Z,0
2017-10-23T04:45:46.919Z,0
2017-10-23T04:46:27.410Z,0
2017-10-23T04:47:07.883Z,0
2017-10-23T04:47:48.357Z,0
2017-10-23T04:48:28.861Z,0
2017-10-23T04:49:09.351Z,0
2017-10-23T04:49:49.851Z,0
2017-10-23T04:50:30.337Z,0
2017-10-23T04:51:10.811Z,0
2017-10-23T04:51:51.286Z,0
2017-10-23T04:52:31.740Z,0
2017-10-23T04:54:59.637Z,0
2017-10-23T04:55:40.121Z,0
2017-10-23T04:56:20.599Z,0
2017-10-23T04:57:01.091Z,0
2017-10-23T04:57:41.567Z,0
2017-10-23T04:58:22.046Z,0
2017-10-23T04:59:02.532Z,0
2017-10-23T04:59:43.025Z,0
2017-10-23T05:00:23.515Z,0
2017-10-23T05:01:04.022Z,0
2017-10-23T05:01:44.503Z,0
2017-10-23T05:02:24.999Z,0
2017-10-23T05:03:05.488Z,0
2017-10-23T05:03:45.990Z,0
2017-10-23T05:04:26.468Z,0
2017-10-23T05:05:06.965Z,0
2017-10-23T05:05:47.489Z,0
2017-10-23T05:06:27.962Z,0
2017-10-23T05:07:08.441Z,0
2017-10-23T05:07:48.937Z,0
2017-10-23T05:08:29.420Z,0
2017-10-23T05:09:09.891Z,0
2017-10-23T05:09:50.386Z,0
2017-10-23T05:10:30.886Z,0
2017-10-23T05:11:11.393Z,0
2017-10-23T05:11:51.894Z,0
2017-10-23T05:12:32.363Z,0
2017-10-23T05:13:12.835Z,0
2017-10-23T05:13:53.330Z,0
2017-10-23T05:14:33.864Z,0
2017-10-23T05:15:14.352Z,0
2017-10-23T05:15:54.850Z,0
2017-10-23T05:16:35.349Z,0
2017-10-23T05:17:15.802Z,0
2017-10-23T05:17:56.360Z,0
2017-10-23T05:18:36.815Z,0
2017-10-23T05:19:17.282Z,0
2017-10-23T05:19:57.744Z,0
2017-10-23T05:20:38.250Z,0
2017-10-23T05:21:18.761Z,0
2017-10-23T05:21:59.233Z,0
2017-10-23T05:22:39.732Z,0
2017-10-23T05:23:20.216Z,0
2017-10-23T05:24:00.707Z,0
2017-10-23T05:24:41.173Z,0
2017-10-23T05:25:21.664Z,0
2017-10-23T05:26:02.156Z,0
2017-10-23T05:26:42.624Z,0
2017-10-23T05:27:23.137Z,0
2017-10-23T05:28:03.639Z,0
2017-10-23T05:28:44.117Z,0
2017-10-23T05:29:25.148Z,0
2017-10-23T05:30:05.632Z,0
2017-10-23T05:30:46.136Z,0
2017-10-23T05:31:26.609Z,0
2017-10-23T05:32:07.108Z,0
2017-10-23T05:32:47.597Z,0
2017-10-23T05:33:28.138Z,0
2017-10-23T05:34:08.593Z,0
2017-10-23T05:34:49.070Z,0
2017-10-23T05:35:29.604Z,0
2017-10-23T05:36:10.070Z,0
2017-10-23T05:36:50.546Z,0
2017-10-23T05:37:31.064Z,0
2017-10-23T05:38:11.531Z,0
2017-10-23T05:38:52.014Z,0
2017-10-23T05:41:25.168Z,0
2017-10-23T05:42:05.673Z,0
2017-10-23T05:42:46.182Z,0
2017-10-23T05:43:26.705Z,0
2017-10-23T05:44:07.225Z,0
2017-10-23T05:44:47.709Z,0
2017-10-23T05:45:28.167Z,0
2017-10-23T05:46:08.645Z,0
2017-10-23T05:48:21.380Z,0
2017-10-23T05:49:01.867Z,0
2017-10-23T05:49:42.363Z,0
2017-10-23T05:50:22.868Z,0
2017-10-23T05:51:03.291Z,0
2017-10-23T05:51:43.718Z,0
2017-10-23T05:52:24.185Z,0
2017-10-23T05:53:04.671Z,0
2017-10-23T05:53:45.159Z,0
2017-10-23T05:54:25.670Z,0
2017-10-23T05:55:06.080Z,0
2017-10-23T05:55:46.516Z,0
2017-10-23T05:56:27.359Z,0
2017-10-23T05:57:07.843Z,0
2017-10-23T05:57:48.240Z,0
2017-10-23T05:58:28.698Z,0
2017-10-23T05:59:09.101Z,0
2017-10-23T05:59:49.632Z,0
2017-10-23T06:00:30.123Z,0
2017-10-23T06:01:10.907Z,5
2017-10-23T06:01:51.324Z,5
2017-10-23T06:02:31.771Z,5
2017-10-23T06:03:12.243Z,5
2017-10-23T06:03:52.677Z,5
2017-10-23T06:04:33.230Z,5
2017-10-23T06:05:13.805Z,5
2017-10-23T06:05:54.232Z,5
2017-10-23T06:06:34.679Z,5
2017-10-23T06:07:15.134Z,5
2017-10-23T06:09:53.264Z,5
2017-10-23T06:10:33.797Z,5
2017-10-23T06:11:14.326Z,5
2017-10-23T06:11:54.852Z,5
2017-10-23T06:12:35.328Z,10
2017-10-23T06:13:15.807Z,10
2017-10-23T06:13:56.344Z,10
2017-10-23T06:14:36.827Z,10
2017-10-23T06:15:17.296Z,10
2017-10-23T06:15:57.783Z,10
2017-10-23T06:16:38.270Z,10
2017-10-23T06:17:18.747Z,15
2017-10-23T06:17:59.247Z,15
2017-10-23T06:18:39.753Z,15
2017-10-23T06:19:20.237Z,15
2017-10-23T06:20:00.725Z,15
2017-10-23T06:20:41.298Z,15
2017-10-23T06:21:21.806Z,15
2017-10-23T06:22:02.369Z,20
2017-10-23T06:22:42.882Z,15
2017-10-23T06:23:23.429Z,15
2017-10-23T06:24:03.972Z,15
2017-10-23T06:24:44.620Z,15
2017-10-23T06:25:25.141Z,15
2017-10-23T06:26:05.645Z,15
2017-10-23T06:26:46.230Z,15
2017-10-23T06:27:26.791Z,15
2017-10-23T06:28:07.290Z,15
2017-10-23T06:28:47.782Z,15
2017-10-23T06:29:28.320Z,15
2017-10-23T06:30:08.829Z,15
2017-10-23T06:30:49.311Z,15
2017-10-23T06:31:29.831Z,20
2017-10-23T06:33:47.631Z,20
2017-10-23T06:34:28.106Z,20
2017-10-23T06:35:08.560Z,25
2017-10-23T06:35:49.028Z,25
2017-10-23T06:36:29.517Z,30
2017-10-23T06:37:09.997Z,30
2017-10-23T06:37:50.509Z,35
2017-10-23T06:38:31.154Z,35
2017-10-23T06:39:11.574Z,40
2017-10-23T06:39:52.082Z,45
2017-10-23T06:40:32.581Z,45
2017-10-23T06:43:05.589Z,55
2017-10-23T06:43:46.084Z,60
2017-10-23T06:44:26.591Z,70
2017-10-23T06:45:07.075Z,70
2017-10-23T06:45:47.562Z,65
2017-10-23T06:46:28.081Z,60
2017-10-23T06:47:08.560Z,60
2017-10-23T06:47:49.045Z,65
2017-10-23T06:48:29.530Z,60
2017-10-23T06:49:09.991Z,55
2017-10-23T06:49:50.483Z,55
2017-10-23T06:50:30.973Z,55
2017-10-23T06:51:11.460Z,55
2017-10-23T06:51:51.949Z,55
2017-10-23T06:52:32.478Z,55
2017-10-23T06:53:12.956Z,60
2017-10-23T06:53:53.505Z,60
2017-10-23T06:54:34.038Z,65
2017-10-23T06:55:14.542Z,75
2017-10-23T06:55:54.997Z,85
2017-10-23T06:56:35.445Z,100
2017-10-23T06:57:15.960Z,105
2017-10-23T06:57:56.468Z,95
2017-10-23T06:58:36.968Z,75
2017-10-23T06:59:17.438Z,70
2017-10-23T06:59:57.911Z,65
2017-10-23T07:00:38.382Z,70
2017-10-23T07:01:18.857Z,75
2017-10-23T07:01:59.337Z,60
2017-10-23T07:02:39.791Z,45
2017-10-23T07:03:20.243Z,35
2017-10-23T07:04:00.707Z,35
2017-10-23T07:04:41.238Z,40
2017-10-23T07:05:21.711Z,50
2017-10-23T07:06:02.232Z,55
2017-10-23T07:06:42.715Z,60
2017-10-23T07:07:23.220Z,55
2017-10-23T07:08:03.727Z,50
2017-10-23T07:08:44.202Z,45
2017-10-23T07:09:24.670Z,40
2017-10-23T07:10:05.154Z,45
2017-10-23T07:10:45.647Z,45
2017-10-23T07:11:26.142Z,50
2017-10-23T07:12:06.574Z,60
2017-10-23T07:12:47.033Z,65
2017-10-23T07:15:14.961Z,75
2017-10-23T07:15:55.429Z,75
2017-10-23T07:16:35.947Z,70
2017-10-23T07:17:16.445Z,65
2017-10-23T07:17:56.919Z,65
2017-10-23T07:18:37.406Z,65
2017-10-23T07:19:17.887Z,65
2017-10-23T07:19:58.385Z,65
2017-10-23T07:20:38.903Z,75
2017-10-23T07:21:19.383Z,80
2017-10-23T07:21:59.924Z,85
2017-10-23T07:22:40.398Z,95
2017-10-23T07:23:20.913Z,110
2017-10-23T07:24:01.412Z,130
2017-10-23T07:24:41.902Z,150
2017-10-23T07:25:22.372Z,160
2017-10-23T07:28:00.475Z,190
2017-10-23T07:28:40.984Z,190
2017-10-23T07:29:21.457Z,185
2017-10-23T07:30:01.964Z,175
2017-10-23T07:30:42.451Z,170
2017-10-23T07:31:22.970Z,155
2017-10-23T07:32:03.439Z,160
2017-10-23T07:34:21.282Z,130
2017-10-23T07:35:01.758Z,125
2017-10-23T07:35:42.228Z,140
2017-10-23T07:36:22.693Z,155
2017-10-23T07:37:03.186Z,175
2017-10-23T07:37:43.642Z,210
2017-10-23T07:39:56.416Z,190
2017-10-23T07:40:36.981Z,175
2017-10-23T07:41:17.535Z,155
2017-10-23T07:41:58.097Z,160
2017-10-23T07:42:38.688Z,165
2017-10-23T07:43:19.931Z,185
2017-10-23T07:44:01.249Z,195
2017-10-23T07:44:41.136Z,195
2017-10-23T07:45:21.745Z,195
2017-10-23T07:46:02.396Z,180
2017-10-23T07:46:42.968Z,180
2017-10-23T07:47:23.556Z,205
2017-10-23T07:48:04.080Z,210
2017-10-23T07:48:44.641Z,235
2017-10-23T07:49:25.157Z,245
2017-10-23T07:50:05.733Z,240
2017-10-23T07:50:46.317Z,235
2017-10-23T07:51:26.876Z,230
2017-10-23T07:52:07.448Z,220
2017-10-23T07:52:48.006Z,215
2017-10-23T07:53:28.635Z,205
2017-10-23T07:54:09.200Z,195
2017-10-23T07:54:49.796Z,185
2017-10-23T07:55:30.398Z,175
2017-10-23T07:56:11.038Z,165
2017-10-23T07:56:51.730Z,160
2017-10-23T07:57:32.316Z,150
2017-10-23T07:58:12.868Z,140
2017-10-23T07:58:53.509Z,140
2017-10-23T07:59:34.027Z,135
2017-10-23T08:00:14.577Z,140
2017-10-23T08:00:55.198Z,155
2017-10-23T08:01:35.779Z,170
2017-10-23T08:02:16.363Z,185
2017-10-23T08:02:56.911Z,210
2017-10-23T08:03:37.446Z,225
2017-10-23T08:04:17.996Z,245
2017-10-23T08:04:58.522Z,255
2017-10-23T08:05:39.032Z,260
2017-10-23T08:06:19.527Z,250
2017-10-23T08:07:00.127Z,255
2017-10-23T08:07:40.668Z,255
2017-10-23T08:08:21.259Z,245
2017-10-23T08:09:01.843Z,265
2017-10-23T08:09:42.423Z,295
2017-10-23T08:10:23.028Z,315
2017-10-23T08:11:03.605Z,315
2017-10-23T08:11:44.109Z,315
2017-10-23T08:12:24.686Z,325
2017-10-23T08:13:05.297Z,300
2017-10-23T08:13:45.903Z,275
2017-10-23T08:14:26.462Z,230
2017-10-23T08:15:06.944Z,215
2017-10-23T08:15:47.436Z,190
2017-10-23T08:16:27.888Z,165
2017-10-23T08:17:08.395Z,145
2017-10-23T08:17:48.851Z,130
2017-10-23T08:18:29.312Z,135
2017-10-23T08:19:09.806Z,125
2017-10-23T08:19:50.287Z,105
2017-10-23T08:20:30.830Z,90
2017-10-23T08:21:11.366Z,85
2017-10-23T08:21:51.902Z,90
2017-10-23T08:22:32.439Z,90
2017-10-23T08:23:12.984Z,85
2017-10-23T08:23:53.526Z,90
2017-10-23T08:24:34.056Z,100
2017-10-23T08:25:14.546Z,105
2017-10-23T08:25:55.015Z,95
2017-10-23T08:26:35.477Z,90
2017-10-23T08:27:15.978Z,85
2017-10-23T08:27:56.443Z,90
2017-10-23T08:28:36.914Z,100
2017-10-23T08:29:17.385Z,105
2017-10-23T08:29:57.812Z,115
2017-10-23T08:30:38.274Z,125
2017-10-23T08:31:18.823Z,130
2017-10-23T08:33:51.848Z,135
2017-10-23T08:34:32.319Z,145
2017-10-23T08:35:12.826Z,160
2017-10-23T08:35:53.533Z,165
2017-10-23T08:36:34.130Z,160
2017-10-23T08:37:14.631Z,145
2017-10-23T08:37:55.164Z,135
2017-10-23T08:38:35.603Z,145
2017-10-23T08:39:16.140Z,155
2017-10-23T08:39:56.702Z,170
2017-10-23T08:40:38.188Z,180
2017-10-23T08:41:18.805Z,195
2017-10-23T08:41:59.372Z,205
2017-10-23T08:42:39.968Z,195
2017-10-23T08:43:20.609Z,185
2017-10-23T08:44:01.270Z,190
2017-10-23T08:44:41.903Z,200
2017-10-23T08:45:22.505Z,200
2017-10-23T08:46:03.149Z,190
2017-10-23T08:46:43.715Z,185
2017-10-23T08:47:24.358Z,175
2017-10-23T08:48:04.931Z,175
2017-10-23T08:48:45.474Z,165
2017-10-23T08:49:26.136Z,170
2017-10-23T08:50:06.684Z,170
2017-10-23T08:50:47.333Z,170
2017-10-23T08:51:27.952Z,165
2017-10-23T08:52:08.535Z,155
2017-10-23T08:52:49.164Z,150
2017-10-23T08:53:29.822Z,140
2017-10-23T08:54:10.440Z,135
2017-10-23T08:54:51.021Z,150
2017-10-23T08:55:31.556Z,155
2017-10-23T08:56:12.185Z,160
2017-10-23T08:56:52.797Z,155
2017-10-23T08:57:33.526Z,160
2017-10-23T08:58:14.752Z,175
2017-10-23T08:58:55.336Z,180
2017-10-23T08:59:35.983Z,185
2017-10-23T09:00:16.571Z,200
2017-10-23T09:00:57.158Z,250
2017-10-23T09:01:37.729Z,275
2017-10-23T09:02:18.333Z,280
2017-10-23T09:02:58.877Z,280
2017-10-23T09:03:39.460Z,275
2017-10-23T09:04:20.127Z,270
2017-10-23T09:05:00.763Z,260
2017-10-23T09:05:41.358Z,250
2017-10-23T09:06:21.927Z,250
2017-10-23T09:07:02.428Z,245
2017-10-23T09:07:42.864Z,245
2017-10-23T09:08:23.329Z,240
2017-10-23T09:09:03.812Z,235
2017-10-23T09:09:44.264Z,225
2017-10-23T09:10:24.744Z,230
2017-10-23T09:11:05.218Z,245
2017-10-23T09:11:45.682Z,250
2017-10-23T09:12:26.268Z,250
2017-10-23T09:13:06.778Z,250
2017-10-23T09:13:47.264Z,245
2017-10-23T09:16:15.333Z,255
2017-10-23T09:16:55.756Z,255
2017-10-23T09:17:36.215Z,255
2017-10-23T09:18:16.804Z,255
2017-10-23T09:18:57.427Z,255
2017-10-23T09:19:37.973Z,255
2017-10-23T09:20:18.612Z,255
2017-10-23T09:20:59.177Z,245
2017-10-23T09:21:39.800Z,225
2017-10-23T09:22:20.414Z,235
2017-10-23T09:23:01.010Z,245
2017-10-23T09:23:41.575Z,255
2017-10-23T09:24:22.168Z,260
2017-10-23T09:25:02.777Z,265
2017-10-23T09:25:43.313Z,265
2017-10-23T09:26:23.846Z,265
2017-10-23T09:27:04.315Z,265
2017-10-23T09:27:44.883Z,270
2017-10-23T09:28:25.525Z,275
2017-10-23T09:29:06.048Z,275
2017-10-23T09:29:46.506Z,280
2017-10-23T09:30:27.022Z,280
2017-10-23T09:31:07.477Z,275
2017-10-23T09:31:48.071Z,280
2017-10-23T09:32:28.550Z,280
2017-10-23T09:33:09.067Z,285
2017-10-23T09:33:49.597Z,290
2017-10-23T09:34:30.165Z,295
2017-10-23T09:35:10.682Z,290
2017-10-23T09:35:51.111Z,285
2017-10-23T09:36:31.608Z,285
2017-10-23T09:37:12.050Z,280
2017-10-23T09:37:52.596Z,275
2017-10-23T09:38:33.029Z,275
2017-10-23T09:39:13.498Z,280
2017-10-23T09:39:53.975Z,285
2017-10-23T09:40:34.766Z,285
2017-10-23T09:41:15.308Z,280
2017-10-23T09:41:55.726Z,285
2017-10-23T09:42:36.219Z,275
2017-10-23T09:43:16.764Z,280
2017-10-23T09:45:54.879Z,305
2017-10-23T09:46:35.298Z,305
2017-10-23T09:47:15.760Z,310
2017-10-23T09:47:56.239Z,310
2017-10-23T09:48:36.708Z,320
2017-10-23T09:49:17.121Z,325
2017-10-23T09:49:57.573Z,325
2017-10-23T09:50:38.035Z,330
2017-10-23T09:51:18.503Z,330
2017-10-23T09:53:51.501Z,320
2017-10-23T09:54:32.023Z,330
2017-10-23T09:55:12.475Z,335
2017-10-23T09:55:52.940Z,345
2017-10-23T09:56:33.451Z,355
2017-10-23T09:57:13.979Z,355
2017-10-23T09:57:54.433Z,345
2017-10-23T09:58:34.908Z,340
2017-10-23T09:59:15.439Z,345
2017-10-23T09:59:55.905Z,360
2017-10-23T10:00:36.308Z,370
2017-10-23T10:01:16.784Z,370
2017-10-23T10:01:57.781Z,355
2017-10-23T10:02:38.268Z,345
2017-10-23T10:03:18.732Z,355
2017-10-23T10:03:59.244Z,360
2017-10-23T10:04:39.855Z,365
2017-10-23T10:05:20.428Z,370
2017-10-23T10:06:00.980Z,360
2017-10-23T10:06:41.561Z,350
2017-10-23T10:07:22.201Z,345
2017-10-23T10:08:02.750Z,350
2017-10-23T10:08:43.394Z,365
2017-10-23T10:09:23.981Z,365
2017-10-23T10:10:04.484Z,340
2017-10-23T10:10:45.006Z,315
2017-10-23T10:11:25.478Z,325
2017-10-23T10:12:05.976Z,335
2017-10-23T10:12:46.564Z,350
2017-10-23T10:13:27.039Z,360
2017-10-23T10:14:07.483Z,370
2017-10-23T10:14:47.952Z,385
2017-10-23T10:15:28.486Z,390
2017-10-23T10:16:08.953Z,395
2017-10-23T10:16:49.416Z,365
2017-10-23T10:17:29.903Z,355
2017-10-23T10:18:10.371Z,360
2017-10-23T10:18:50.840Z,360
2017-10-23T10:19:31.282Z,355
2017-10-23T10:20:12.402Z,355
2017-10-23T10:20:52.880Z,360
2017-10-23T10:21:33.352Z,360
2017-10-23T10:22:13.834Z,365
2017-10-23T10:22:54.301Z,365
2017-10-23T10:23:34.810Z,365
2017-10-23T10:26:07.808Z,270
2017-10-23T10:26:48.246Z,235
2017-10-23T10:27:28.701Z,235
2017-10-23T10:28:09.234Z,255
2017-10-23T10:28:49.680Z,285
2017-10-23T10:29:30.262Z,280